Time;durP1;ratioP1;P1;durP2;ratioP2;P2;SDS_P1;SDS_P2;PMS_P1;PMS_P2;Temp;Humidity;BMP_temperature;BMP_pressure;BME280_temperature;BME280_humidity;BME280_pressure;Samples;Min_cycle;Max_cycle;Signal;HPM_P1;HPM_P2
2022/08/12 00:43:15;;;;;;;4.10;3.70;;;;;;;17.34;77.62;101874.47;1023466;29;20044;-73
2022/08/12 00:43:48;;;;;;;5.15;3.08;;;;;;;17.40;77.91;101870.81;1026808;28;20494;-73
2022/08/12 00:44:21;;;;;;;7.97;4.10;;;;;;;17.39;77.77;101869.19;1027476;28;20043;-73
2022/08/12 00:44:53;;;;;;;4.53;3.28;;;;;;;17.29;77.55;101871.66;1027933;28;20042;-73
2022/08/12 00:45:25;;;;;;;7.10;4.15;;;;;;;17.34;77.84;101873.63;1023086;29;20047;-73
2022/08/12 00:46:52;;;;;;;11.55;3.83;;;;;;;17.34;77.18;101874.47;1019408;29;20047;-73
2022/08/12 00:47:24;;;;;;;16.27;3.65;;;;;;;17.30;77.13;101879.50;1022039;29;20047;-72
2022/08/12 00:47:56;;;;;;;16.77;5.10;;;;;;;17.25;77.16;101876.66;1027155;28;20058;-72
2022/08/12 00:48:28;;;;;;;11.10;4.20;;;;;;;17.24;77.57;101871.53;1027722;28;20414;-72
2022/08/12 00:49:01;;;;;;;18.75;4.20;;;;;;;17.25;77.98;101868.59;1023178;29;21658;-73
2022/08/12 00:49:32;;;;;;;6.78;3.83;;;;;;;17.25;77.89;101867.78;1023588;29;20058;-72
2022/08/12 00:50:05;;;;;;;8.80;4.00;;;;;;;17.29;77.83;101877.03;1023434;29;20439;-72
2022/08/12 00:50:37;;;;;;;4.18;3.78;;;;;;;17.31;77.92;101872.25;1023274;29;20099;-73
2022/08/12 00:51:09;;;;;;;90.05;17.25;;;;;;;17.29;77.79;101877.03;1026108;28;21532;-72
2022/08/12 00:52:34;;;;;;;151.13;22.88;;;;;;;17.29;78.11;101869.78;1027755;28;20517;-72
2022/08/12 00:53:06;;;;;;;26.17;6.78;;;;;;;17.12;78.25;101876.09;1027363;28;20129;-73
2022/08/12 00:53:38;;;;;;;33.85;8.05;;;;;;;17.16;78.79;101872.69;1023581;29;20051;-73
2022/08/12 00:54:10;;;;;;;27.70;7.10;;;;;;;17.17;78.84;101873.53;1021165;29;20047;-72
2022/08/12 00:54:45;;;;;;;133.57;20.13;;;;;;;17.10;78.77;101872.81;1023427;29;20451;-72
2022/08/12 00:55:18;;;;;;;79.78;11.98;;;;;;;17.14;78.67;101879.38;1023934;28;20043;-73
2022/08/12 00:55:51;;;;;;;38.75;8.82;;;;;;;17.03;78.96;101877.50;1023116;29;20107;-73
2022/08/12 00:56:26;;;;;;;51.13;9.70;;;;;;;17.07;78.83;101879.50;1023591;29;20082;-73
2022/08/12 00:57:03;;;;;;;25.73;7.43;;;;;;;17.03;79.59;101882.91;1023220;29;20039;-73
2022/08/12 00:57:35;;;;;;;22.73;5.65;;;;;;;17.09;79.54;101876.56;1025478;28;20414;-73
2022/08/12 00:58:09;;;;;;;39.13;8.23;;;;;;;17.07;79.00;101873.31;1025268;28;20053;-73
2022/08/12 00:58:49;;;;;;;46.88;10.85;;;;;;;17.08;78.69;101880.31;1019321;29;20044;-73
2022/08/12 00:59:22;;;;;;;32.65;8.13;;;;;;;16.99;78.78;101872.59;1019149;29;20040;-73
2022/08/12 01:00:01;;;;;;;16.02;6.57;;;;;;;16.99;79.21;101882.56;1019178;29;20048;-72
2022/08/12 01:00:33;;;;;;;11.68;4.55;;;;;;;16.93;79.47;101884.28;1022012;29;20054;-72
2022/08/12 01:01:07;;;;;;;10.57;4.25;;;;;;;16.98;79.75;101879.03;1021536;29;20051;-73
2022/08/12 01:01:43;;;;;;;9.27;4.25;;;;;;;17.03;79.70;101875.66;1023325;29;20054;-73
2022/08/12 01:02:38;;;;;;;30.60;5.90;;;;;;;17.00;78.86;101873.44;1019568;29;20079;-73
2022/08/12 01:03:13;;;;;;;25.05;6.47;;;;;;;17.03;78.23;101872.13;1023373;29;20566;-73
2022/08/12 01:11:31;;;;;;;7.18;3.70;;;;;;;16.92;79.73;101873.75;1022231;28;20043;-73
2022/08/12 01:12:04;;;;;;;5.70;4.05;;;;;;;16.93;79.52;101876.19;1021273;29;20104;-73
2022/08/12 01:12:37;;;;;;;5.60;4.32;;;;;;;16.82;78.96;101868.94;1019603;29;20048;-73
2022/08/12 01:13:12;;;;;;;7.00;3.70;;;;;;;16.82;79.85;101873.50;1019349;29;20087;-73
2022/08/12 01:13:51;;;;;;;9.77;4.30;;;;;;;16.90;80.29;101873.97;1015498;29;20171;-73
2022/08/12 01:14:23;;;;;;;4.57;3.80;;;;;;;16.94;80.12;101875.16;1015240;29;20105;-73
2022/08/12 01:14:56;;;;;;;6.32;3.40;;;;;;;17.02;80.15;101876.69;1021294;29;20528;-72
2022/08/12 01:15:28;;;;;;;4.40;3.35;;;;;;;16.96;79.93;101878.44;1024645;28;20055;-73
2022/08/12 01:16:02;;;;;;;5.47;3.85;;;;;;;16.82;79.24;101876.22;1023471;29;20050;-73
2022/08/12 01:16:34;;;;;;;5.68;3.25;;;;;;;16.86;79.54;101872.00;1023026;29;20043;-73
2022/08/12 01:17:06;;;;;;;4.05;3.75;;;;;;;16.81;79.68;101877.25;1023156;29;20039;-72
2022/08/12 01:17:43;;;;;;;6.05;3.75;;;;;;;16.68;80.65;101878.28;1023729;28;20163;-73
2022/08/12 01:18:17;;;;;;;7.22;3.90;;;;;;;16.78;79.95;101878.53;1027187;28;20053;-73
2022/08/12 01:18:51;;;;;;;6.18;5.32;;;;;;;16.75;80.40;101881.69;1023616;29;20039;-73
2022/08/12 01:19:23;;;;;;;6.90;3.90;;;;;;;16.78;79.55;101875.03;1023143;29;20031;-73
2022/08/12 01:19:56;;;;;;;6.10;3.90;;;;;;;16.72;79.29;101873.28;1023297;29;20050;-72
2022/08/12 01:20:36;;;;;;;4.88;3.80;;;;;;;16.69;79.62;101875.34;1020042;29;20054;-73
2022/08/12 01:21:10;;;;;;;;;;;;;;;16.72;80.03;101876.78;1019824;29;20044;-73
2022/08/12 01:22:01;;;;;;;9.02;3.83;;;;;;;16.77;80.49;101876.09;1015349;29;19923;-73
2022/08/12 01:22:40;;;;;;;4.75;3.60;;;;;;;16.74;81.41;101879.25;1019646;29;20048;-73
2022/08/12 01:23:34;;;;;;;6.70;4.05;;;;;;;16.73;80.71;101866.84;1019278;29;20052;-73
2022/08/12 01:24:44;;;;;;;4.35;3.50;;;;;;;16.63;80.74;101872.75;1019457;29;20046;-73
2022/08/12 01:25:17;;;;;;;4.35;3.40;;;;;;;16.66;80.95;101869.63;1023411;29;20071;-73
2022/08/12 01:25:52;;;;;;;5.45;4.07;;;;;;;16.71;81.19;101875.16;1020415;29;20092;-73
2022/08/12 01:26:27;;;;;;;4.03;3.50;;;;;;;16.75;81.22;101873.63;1023203;29;20051;-73
2022/08/12 01:27:02;;;;;;;4.45;3.88;;;;;;;16.72;80.23;101871.41;1022921;29;20095;-73
2022/08/12 01:27:39;;;;;;;4.53;3.53;;;;;;;16.77;80.24;101874.22;1023182;29;20058;-73
2022/08/12 01:28:12;;;;;;;5.00;3.75;;;;;;;16.71;79.86;101869.75;1019416;29;20051;-73
2022/08/12 01:28:46;;;;;;;4.65;4.18;;;;;;;16.71;80.26;101875.16;1021206;29;20047;-73
2022/08/12 01:29:27;;;;;;;4.90;3.22;;;;;;;16.77;80.46;101866.16;1023163;29;20043;-72
2022/08/12 01:30:06;;;;;;;8.32;6.13;;;;;;;16.79;80.66;101872.09;1025628;28;20087;-73
2022/08/12 01:30:40;;;;;;;16.45;4.68;;;;;;;16.82;81.01;101868.94;1024243;28;20525;-73
2022/08/12 01:31:17;;;;;;;4.53;3.63;;;;;;;16.81;80.50;101874.56;1022861;29;20514;-73
2022/08/12 01:31:49;;;;;;;4.80;3.60;;;;;;;16.72;80.50;101866.03;1019074;29;20048;-73
2022/08/12 01:32:22;;;;;;;3.97;3.67;;;;;;;16.62;80.49;101871.09;1019329;29;20044;-73
2022/08/12 01:32:54;;;;;;;4.53;4.13;;;;;;;16.64;80.33;101866.31;1020739;29;20060;-73
2022/08/12 01:33:32;;;;;;;8.65;4.10;;;;;;;16.69;80.80;101866.47;1023241;29;20059;-72
2022/08/12 01:34:08;;;;;;;5.38;4.40;;;;;;;16.57;81.28;101868.28;1023298;29;20043;-73
2022/08/12 01:35:12;;;;;;;7.20;3.85;;;;;;;16.55;81.04;101870.41;1019347;29;20084;-73
2022/08/12 01:35:48;;;;;;;5.78;3.78;;;;;;;16.56;80.97;101869.34;1019373;29;20044;-73
2022/08/12 01:36:40;;;;;;;12.73;4.63;;;;;;;16.48;81.12;101870.50;1023031;29;20645;-73
2022/08/12 01:37:13;;;;;;;8.18;4.63;;;;;;;16.49;81.36;101874.00;1022850;29;20046;-72
2022/08/12 01:37:57;;;;;;;4.10;3.55;;;;;;;16.56;81.43;101872.84;1019268;29;20078;-73
2022/08/12 01:38:32;;;;;;;12.50;4.43;;;;;;;16.54;81.25;101866.06;1023163;29;20043;-73
2022/08/12 01:39:04;;;;;;;6.40;4.15;;;;;;;16.50;81.70;101872.97;1023463;29;20521;-73
2022/08/12 01:39:43;;;;;;;5.63;4.78;;;;;;;16.35;82.20;101876.88;1026120;28;20521;-73
2022/08/12 01:40:37;;;;;;;6.38;4.20;;;;;;;16.36;83.00;101878.53;1024966;28;20518;-73
2022/08/12 01:41:15;;;;;;;6.22;3.78;;;;;;;16.40;83.37;101884.25;1023192;29;20047;-73
2022/08/12 01:41:53;;;;;;;14.02;6.22;;;;;;;16.35;83.43;101879.56;1023202;29;20043;-73
2022/08/12 01:42:27;;;;;;;8.68;4.32;;;;;;;16.11;84.00;101877.84;1019188;29;20039;-73
2022/08/12 01:43:08;;;;;;;6.15;4.28;;;;;;;16.07;84.14;101882.03;1015889;29;20047;-73
2022/08/12 01:43:41;;;;;;;10.05;4.18;;;;;;;16.13;84.55;101878.44;1018361;29;20044;-73
2022/08/12 01:44:13;;;;;;;8.60;4.35;;;;;;;15.99;84.99;101885.03;1018996;29;20083;-73
2022/08/12 01:44:55;;;;;;;18.02;4.78;;;;;;;16.05;85.17;101881.44;1017927;29;20044;-73
2022/08/12 01:45:28;;;;;;;7.88;4.72;;;;;;;16.03;84.34;101875.47;1021025;29;20055;-73
2022/08/12 01:46:28;;;;;;;7.50;3.80;;;;;;;16.15;83.90;101876.34;1019329;29;20048;-73
2022/08/12 01:47:22;;;;;;;7.60;4.32;;;;;;;16.03;83.90;101878.16;1023147;29;20042;-73
2022/08/12 01:48:03;;;;;;;7.05;4.82;;;;;;;16.02;84.43;101874.66;1023901;28;20043;-73
2022/08/12 01:48:54;;;;;;;5.28;4.15;;;;;;;16.09;84.32;101882.63;1023125;29;20039;-73
2022/08/12 01:50:06;;;;;;;6.78;3.70;;;;;;;16.10;83.22;101873.50;1022960;29;20047;-73
2022/08/12 01:51:03;;;;;;;8.70;4.13;;;;;;;16.02;83.86;101873.84;1010910;29;20165;-73
2022/08/12 01:51:42;;;;;;;9.88;4.45;;;;;;;16.00;83.85;101868.69;1023143;29;20075;-73
2022/08/12 01:52:43;;;;;;;6.35;4.50;;;;;;;15.79;84.77;101876.41;1023336;29;20527;-73
2022/08/12 01:53:17;;;;;;;11.75;5.13;;;;;;;15.82;85.53;101881.31;1023725;28;20063;-73
2022/08/12 01:54:03;;;;;;;4.82;3.90;;;;;;;15.85;85.25;101880.88;1027316;28;20473;-73
2022/08/12 01:54:42;;;;;;;7.57;4.03;;;;;;;15.81;85.05;101875.13;1020964;29;20048;-73
2022/08/12 01:55:18;;;;;;;8.32;5.45;;;;;;;15.88;85.38;101865.09;1021411;29;20051;-73
2022/08/12 01:55:50;;;;;;;10.07;4.13;;;;;;;15.90;84.64;101867.59;1019565;29;20159;-73
2022/08/12 01:56:24;;;;;;;5.20;4.57;;;;;;;15.97;84.76;101869.16;1018891;29;20052;-73
2022/08/12 01:57:06;;;;;;;16.25;4.50;;;;;;;15.81;85.41;101866.25;1015409;29;20601;-73
2022/08/12 01:57:48;;;;;;;5.03;4.20;;;;;;;15.84;84.54;101868.47;1017578;29;20040;-73
2022/08/12 01:59:58;;;;;;;7.78;4.45;;;;;;;15.72;86.16;101874.63;1014827;29;20046;-73
2022/08/12 02:00:47;;;;;;;6.18;4.50;;;;;;;15.85;85.92;101867.44;1011384;29;20081;-73
2022/08/12 02:01:33;;;;;;;5.25;3.95;;;;;;;15.87;84.73;101868.03;1007223;29;20052;-72
2022/08/12 02:02:08;;;;;;;6.47;4.07;;;;;;;15.87;84.38;101868.03;1008778;29;20096;-73
2022/08/12 02:02:45;;;;;;;14.10;4.78;;;;;;;15.94;84.36;101871.47;1024650;28;20040;-73
2022/08/12 02:11:56;;;;;;;4.22;3.72;;;;;;;15.73;86.36;101860.16;1023062;29;20043;-73
2022/08/12 02:12:48;;;;;;;5.38;3.88;;;;;;;15.84;86.34;101857.72;1022981;29;20051;-73
2022/08/12 02:13:42;;;;;;;5.60;4.07;;;;;;;15.82;86.06;101859.81;1023505;29;20039;-73
2022/08/12 02:14:35;;;;;;;4.82;4.22;;;;;;;15.68;86.52;101867.25;1021854;29;20302;-73
2022/08/12 02:15:26;;;;;;;5.35;4.28;;;;;;;15.82;87.26;101871.38;1023451;29;20051;-73
2022/08/12 02:16:03;;;;;;;5.60;4.63;;;;;;;15.88;86.97;101864.28;1025027;28;20129;-73
2022/08/12 02:16:45;;;;;;;5.97;4.57;;;;;;;15.85;85.68;101864.75;1023299;29;20411;-73
2022/08/12 02:17:27;;;;;;;7.00;4.40;;;;;;;15.69;85.85;101866.19;1023249;29;20050;-73
2022/08/12 02:18:40;;;;;;;4.85;4.20;;;;;;;15.82;86.05;101870.56;1024721;28;20084;-73
2022/08/12 02:19:49;;;;;;;6.90;4.72;;;;;;;15.81;87.00;101869.75;1023471;29;20048;-73
2022/08/12 02:20:26;;;;;;;7.47;4.68;;;;;;;15.77;85.93;101864.00;1023247;29;20046;-73
2022/08/12 02:21:49;;;;;;;8.52;4.25;;;;;;;15.71;86.81;101870.28;1025903;28;20422;-73
2022/08/12 02:22:30;;;;;;;6.30;4.43;;;;;;;15.78;87.17;101867.53;1027922;28;20042;-73
2022/08/12 02:23:03;;;;;;;;;;;;;;;15.82;87.19;101859.81;1024507;29;20043;-73
2022/08/12 02:23:35;;;;;;;6.15;4.88;;;;;;;15.83;87.03;101862.28;1023711;29;19922;-72
2022/08/12 02:24:11;;;;;;;13.00;4.72;;;;;;;15.86;86.99;101866.38;1021763;29;20408;-72
2022/08/12 02:24:44;;;;;;;5.80;4.57;;;;;;;15.91;86.45;101863.88;1023704;29;20107;-73
2022/08/12 02:25:36;;;;;;;5.40;4.70;;;;;;;15.75;85.75;101860.75;1025874;28;20058;-73
2022/08/12 02:26:08;;;;;;;11.48;4.72;;;;;;;15.75;86.62;101871.47;1023479;29;20222;-73
2022/08/12 02:26:42;;;;;;;5.95;5.35;;;;;;;15.80;86.68;101859.22;1022818;29;20053;-73
2022/08/12 02:27:14;;;;;;;11.18;5.30;;;;;;;15.77;86.61;101857.81;1021825;29;20047;-73
2022/08/12 02:27:51;;;;;;;4.70;4.30;;;;;;;15.83;87.23;101861.47;1019636;29;20051;-73
2022/08/12 02:28:23;;;;;;;5.70;4.80;;;;;;;15.85;87.14;101859.38;1021328;29;20047;-73
2022/08/12 02:28:55;;;;;;;5.05;4.55;;;;;;;15.86;87.20;101861.00;1019855;29;20044;-72
2022/08/12 02:29:28;;;;;;;6.30;5.70;;;;;;;15.74;87.52;101864.47;1021524;29;20062;-73
2022/08/12 02:29:59;;;;;;;6.88;5.20;;;;;;;15.79;87.44;101860.28;1023534;29;20043;-73
2022/08/12 02:30:33;;;;;;;6.57;5.25;;;;;;;15.75;88.16;101860.75;1020797;28;20048;-73
2022/08/12 02:31:13;;;;;;;6.60;6.00;;;;;;;15.69;87.29;101856.28;1024758;28;20039;-73
2022/08/12 02:31:46;;;;;;;10.25;5.82;;;;;;;15.72;87.31;101866.56;1027565;28;20057;-73
2022/08/12 02:32:19;;;;;;;7.22;4.70;;;;;;;15.77;87.17;101860.50;1027977;28;20457;-74
2022/08/12 02:32:53;;;;;;;6.80;5.07;;;;;;;15.74;86.83;101863.66;1023573;28;20518;-73
2022/08/12 02:33:27;;;;;;;5.30;4.80;;;;;;;15.64;87.09;101861.50;1023910;28;20051;-73
2022/08/12 02:34:00;;;;;;;6.15;5.55;;;;;;;15.71;87.10;101864.91;1021730;28;20047;-73
2022/08/12 02:34:32;;;;;;;9.30;5.85;;;;;;;15.75;86.97;101858.06;1017122;29;20055;-72
2022/08/12 02:35:07;;;;;;;5.80;5.25;;;;;;;15.72;87.30;101858.50;1020157;29;20043;-73
2022/08/12 02:35:38;;;;;;;5.70;4.85;;;;;;;15.72;87.14;101858.50;1016693;29;20048;-72
2022/08/12 02:36:10;;;;;;;5.95;4.78;;;;;;;15.72;86.94;101861.19;1020827;29;20051;-72
2022/08/12 02:36:43;;;;;;;6.40;5.18;;;;;;;15.67;87.28;101866.41;1023672;29;20055;-73
2022/08/12 02:37:16;;;;;;;5.65;4.97;;;;;;;15.67;87.13;101863.75;1024556;28;20043;-73
2022/08/12 02:37:51;;;;;;;9.93;5.00;;;;;;;15.74;86.88;101859.09;1028211;28;20513;-73
2022/08/12 02:38:23;;;;;;;7.22;4.90;;;;;;;15.81;87.25;101858.19;1027974;28;20042;-73
2022/08/12 02:38:56;;;;;;;5.90;5.30;;;;;;;15.84;86.67;101863.09;1023943;29;20095;-73
2022/08/12 02:39:32;;;;;;;7.65;5.05;;;;;;;15.83;87.35;101858.78;1023865;29;20122;-73
2022/08/12 02:40:06;;;;;;;6.78;5.68;;;;;;;15.79;87.79;101855.72;1022209;29;20479;-73
2022/08/12 02:40:44;;;;;;;5.35;4.95;;;;;;;15.69;86.50;101856.28;1022049;29;20043;-73
2022/08/12 02:41:18;;;;;;;5.78;5.28;;;;;;;15.68;86.91;101860.00;1020026;29;20119;-73
2022/08/12 02:41:52;;;;;;;5.03;4.60;;;;;;;15.60;86.99;101862.97;1019591;29;20464;-73
2022/08/12 02:42:24;;;;;;;6.25;4.75;;;;;;;15.62;87.25;101862.78;1021758;29;20048;-73
2022/08/12 02:43:13;;;;;;;8.07;6.22;;;;;;;15.51;87.05;101861.59;1025220;28;20055;-72
2022/08/12 02:43:50;;;;;;;5.68;5.15;;;;;;;15.53;87.88;101864.88;1027885;28;20053;-72
2022/08/12 02:44:22;;;;;;;9.65;5.53;;;;;;;15.59;87.66;101866.69;1024019;29;20054;-73
2022/08/12 02:44:54;;;;;;;6.32;5.55;;;;;;;15.59;87.44;101858.66;1019445;29;20043;-73
2022/08/12 02:45:41;;;;;;;5.78;5.20;;;;;;;15.55;87.30;101857.44;1016034;29;20182;-72
2022/08/12 02:46:15;;;;;;;18.98;5.47;;;;;;;15.58;88.03;101857.00;1015741;29;20048;-73
2022/08/12 02:46:48;;;;;;;18.73;6.80;;;;;;;15.52;88.83;101860.56;1014867;29;20055;-73
2022/08/12 02:47:21;;;;;;;42.17;7.80;;;;;;;15.52;89.20;101860.56;1020877;29;20071;-73
2022/08/12 02:48:24;;;;;;;26.00;6.18;;;;;;;15.48;88.36;101854.00;1020063;29;20032;-72
2022/08/12 02:49:10;;;;;;;12.25;6.03;;;;;;;15.52;88.96;101860.56;1019662;29;20047;-73
2022/08/12 02:49:49;;;;;;;13.98;5.55;;;;;;;15.60;89.47;101865.66;1019734;29;20044;-73
2022/08/12 02:50:21;;;;;;;11.23;6.32;;;;;;;15.63;89.26;101857.19;1019847;29;20039;-73
2022/08/12 02:50:56;;;;;;;10.10;5.10;;;;;;;15.64;89.00;101858.81;1017468;29;20048;-73
2022/08/12 02:51:40;;;;;;;5.65;5.13;;;;;;;15.64;88.83;101858.81;1019657;29;20532;-73
2022/08/12 02:52:13;;;;;;;7.57;5.22;;;;;;;15.64;89.25;101861.50;1018870;29;20155;-73
2022/08/12 02:52:45;;;;;;;6.70;5.22;;;;;;;15.61;88.44;101864.66;1018620;29;20134;-73
2022/08/12 02:53:17;;;;;;;6.57;5.55;;;;;;;15.63;89.00;101857.19;1016001;29;20040;-73
2022/08/12 02:53:50;;;;;;;7.32;5.28;;;;;;;15.62;89.11;101865.47;1015714;29;20056;-74
2022/08/12 02:54:37;;;;;;;10.93;5.38;;;;;;;15.67;89.01;101857.53;1022485;29;20104;-73
2022/08/12 02:55:20;;;;;;;9.05;5.30;;;;;;;15.61;88.87;101859.28;1026814;28;20532;-73
2022/08/12 02:56:06;;;;;;;7.88;4.53;;;;;;;15.48;88.05;101862.06;1027630;28;20089;-73
2022/08/12 02:56:40;;;;;;;9.23;5.10;;;;;;;15.48;88.53;101855.88;1027381;28;20047;-73
2022/08/12 02:57:21;;;;;;;12.43;6.38;;;;;;;15.50;88.13;101862.66;1023740;29;20058;-73
2022/08/12 02:57:54;;;;;;;6.28;5.47;;;;;;;15.51;87.93;101866.16;1023437;29;20094;-73
2022/08/12 02:58:25;;;;;;;6.85;5.07;;;;;;;15.42;88.35;101861.09;1015870;29;20508;-73
2022/08/12 02:59:04;;;;;;;9.55;5.32;;;;;;;15.51;88.00;101863.47;1018470;29;20051;-73
2022/08/12 02:59:35;;;;;;;5.80;5.18;;;;;;;15.37;88.64;101858.25;1013654;29;20044;-73
2022/08/12 03:00:08;;;;;;;6.10;5.40;;;;;;;15.41;88.23;101859.44;1016699;29;20040;-73
2022/08/12 03:00:40;;;;;;;8.93;5.55;;;;;;;15.38;88.85;101854.53;1020011;29;20059;-73
2022/08/12 03:01:12;;;;;;;6.93;5.10;;;;;;;15.38;88.70;101859.09;1024653;28;20114;-73
2022/08/12 03:02:02;;;;;;;6.85;5.20;;;;;;;15.28;88.77;101862.25;1027603;28;20066;-73
2022/08/12 03:02:34;;;;;;;5.32;4.80;;;;;;;15.33;89.04;101858.91;1028131;28;20402;-72
2022/08/12 03:03:08;;;;;;;6.85;5.15;;;;;;;15.38;88.92;101861.78;1023479;29;20043;-73
2022/08/12 03:03:40;;;;;;;8.88;5.13;;;;;;;15.26;88.04;101855.47;1019919;29;20055;-73
2022/08/12 03:04:18;;;;;;;11.18;6.10;;;;;;;15.30;88.64;101864.72;1019912;29;20050;-73
2022/08/12 03:04:56;;;;;;;10.38;5.22;;;;;;;15.26;88.47;101856.28;1021127;29;20067;-73
2022/08/12 03:05:28;;;;;;;7.50;5.45;;;;;;;15.28;88.58;101864.13;1019750;29;20048;-73
2022/08/12 03:06:20;;;;;;;10.13;5.40;;;;;;;15.29;88.39;101855.03;1019826;29;20130;-73
2022/08/12 03:07:30;;;;;;;4.65;4.28;;;;;;;15.31;88.62;101859.13;1015344;29;20055;-72
2022/08/12 03:08:23;;;;;;;7.30;4.57;;;;;;;15.31;88.73;101852.94;1007855;29;20497;-73
2022/08/12 03:09:04;;;;;;;5.05;4.65;;;;;;;15.17;89.45;101854.13;1013193;29;20182;-73
2022/08/12 03:10:09;;;;;;;7.47;4.97;;;;;;;15.22;89.55;101859.66;1023757;29;20065;-73
2022/08/12 03:10:49;;;;;;;5.85;5.20;;;;;;;15.15;88.88;101859.72;1021665;29;20132;-73
2022/08/12 03:11:31;;;;;;;10.63;4.85;;;;;;;14.97;90.57;101860.50;1019511;29;20048;-73
2022/08/12 03:12:08;;;;;;;5.72;5.18;;;;;;;15.03;91.04;101859.63;1016135;29;20052;-74
2022/08/12 03:12:47;;;;;;;7.57;5.13;;;;;;;14.99;91.20;101858.41;1019900;29;20099;-73
2022/08/12 03:13:25;;;;;;;9.68;4.82;;;;;;;15.01;90.73;101853.66;1018030;29;20127;-73
2022/08/12 03:13:59;;;;;;;6.45;5.55;;;;;;;15.04;90.13;101853.19;1022784;29;20126;-73
2022/08/12 03:14:33;;;;;;;7.78;4.93;;;;;;;14.98;89.68;101858.63;1024027;29;20054;-72
2022/08/12 03:15:08;;;;;;;6.82;5.78;;;;;;;15.01;89.24;101853.66;1025608;28;20526;-73
2022/08/12 03:15:40;;;;;;;8.60;5.78;;;;;;;15.02;89.19;101855.28;1023728;28;20043;-73
2022/08/12 03:16:13;;;;;;;14.93;5.32;;;;;;;15.03;89.22;101858.78;1019565;29;20055;-73
2022/08/12 03:16:54;;;;;;;6.78;5.70;;;;;;;14.99;90.00;101850.38;1019979;29;20495;-73
2022/08/12 03:17:48;;;;;;;10.43;5.72;;;;;;;15.05;90.71;101854.84;1017607;29;20047;-73
2022/08/12 03:18:41;;;;;;;9.80;5.50;;;;;;;15.04;89.86;101858.56;1019320;29;20209;-73
2022/08/12 03:19:19;;;;;;;4.72;4.30;;;;;;;15.01;88.92;101856.34;1018482;29;20403;-72
2022/08/12 03:19:53;;;;;;;7.78;6.30;;;;;;;15.05;89.39;101860.22;1019933;29;20051;-73
2022/08/12 03:20:41;;;;;;;8.70;5.53;;;;;;;15.07;89.91;101858.16;1023667;29;20146;-72
2022/08/12 03:21:16;;;;;;;11.27;5.60;;;;;;;15.11;90.89;101856.66;1027642;28;21634;-73
2022/08/12 03:22:12;;;;;;;6.10;5.50;;;;;;;15.20;91.22;101856.38;1026450;28;20062;-73
2022/08/12 03:22:44;;;;;;;6.50;5.55;;;;;;;15.20;91.00;101859.88;1027873;28;20043;-73
2022/08/12 03:23:16;;;;;;;8.73;5.82;;;;;;;15.16;91.03;101856.00;1025895;28;20043;-73
2022/08/12 03:24:02;;;;;;;10.45;5.72;;;;;;;15.22;91.18;101859.66;1023727;29;20054;-73
2022/08/12 03:24:34;;;;;;;12.18;5.88;;;;;;;15.24;91.50;101857.56;1023811;29;20043;-73
2022/08/12 03:25:23;;;;;;;8.80;5.90;;;;;;;15.21;90.86;101858.00;1023739;29;20083;-73
2022/08/12 03:26:00;;;;;;;12.82;5.15;;;;;;;15.15;90.11;101855.19;1026649;28;20065;-73
2022/08/12 03:26:34;;;;;;;5.55;5.15;;;;;;;15.19;90.23;101862.78;1023594;28;20426;-73
2022/08/12 03:27:08;;;;;;;9.85;5.82;;;;;;;15.10;91.09;101852.34;1027886;28;20046;-73
2022/08/12 03:27:48;;;;;;;14.23;6.55;;;;;;;15.15;91.21;101860.53;1023525;28;20051;-73
2022/08/12 03:29:11;;;;;;;11.05;6.15;;;;;;;15.13;92.02;101851.06;1019387;29;20043;-73
2022/08/12 03:29:46;;;;;;;8.45;5.80;;;;;;;15.17;91.84;101852.28;1023625;29;20483;-73
2022/08/12 03:30:28;;;;;;;6.38;5.35;;;;;;;15.15;91.98;101854.34;1027543;28;20043;-73
2022/08/12 03:31:03;;;;;;;9.43;5.88;;;;;;;15.15;91.68;101851.69;1027892;28;20524;-73
2022/08/12 03:31:34;;;;;;;9.18;5.95;;;;;;;15.21;91.48;101848.09;1023014;28;20043;-73
2022/08/12 03:32:07;;;;;;;7.90;6.50;;;;;;;15.12;91.29;101855.63;1023083;29;20070;-73
2022/08/12 03:33:01;;;;;;;6.63;5.75;;;;;;;15.09;92.05;101856.06;1023768;29;20043;-73
2022/08/12 03:33:36;;;;;;;19.58;7.22;;;;;;;15.14;92.62;101853.53;1026784;28;20085;-73
2022/08/12 03:34:13;;;;;;;16.15;5.60;;;;;;;15.14;92.58;101847.34;1027643;28;20043;-73
2022/08/12 03:34:48;;;;;;;18.77;6.07;;;;;;;15.13;91.50;101854.59;1023538;28;20050;-73
2022/08/12 03:35:25;;;;;;;12.52;6.63;;;;;;;15.14;92.59;101850.03;1019811;29;20467;-73
2022/08/12 03:36:17;;;;;;;20.90;6.95;;;;;;;15.17;93.32;101851.44;1019594;29;20195;-73
2022/08/12 03:36:49;;;;;;;19.80;6.55;;;;;;;15.12;93.68;101855.63;1019540;29;20039;-73
2022/08/12 03:37:29;;;;;;;19.15;7.70;;;;;;;15.10;92.69;101852.34;1019460;29;20039;-72
2022/08/12 03:38:08;;;;;;;8.38;6.13;;;;;;;15.08;93.91;101854.44;1015834;29;20051;-73
2022/08/12 03:38:49;;;;;;;7.78;6.70;;;;;;;15.09;93.15;101847.19;1018471;29;20220;-73
2022/08/12 03:39:32;;;;;;;8.55;5.93;;;;;;;15.11;93.53;101858.53;1019467;29;20047;-73
2022/08/12 03:41:31;;;;;;;6.97;6.28;;;;;;;15.17;93.71;101854.13;1019829;29;20558;-73
2022/08/12 03:42:21;;;;;;;8.05;5.75;;;;;;;15.19;93.03;101849.38;1025685;28;20420;-73
2022/08/12 04:00:22;;;;;;;6.78;5.97;;;;;;;14.64;95.23;101850.06;1019319;29;20043;-73
2022/08/12 04:00:54;;;;;;;7.65;6.70;;;;;;;14.45;95.70;101841.13;1021652;29;20036;-73
2022/08/12 04:01:26;;;;;;;6.75;6.15;;;;;;;14.53;95.70;101851.59;1025153;28;20503;-72
2022/08/12 04:01:58;;;;;;;6.93;6.25;;;;;;;14.65;96.69;101848.19;1027740;28;20050;-73
2022/08/12 04:02:30;;;;;;;7.75;6.97;;;;;;;14.44;96.21;101847.50;1027738;28;20491;-73
2022/08/12 04:03:50;;;;;;;6.60;5.63;;;;;;;14.37;96.83;101846.72;1023742;29;20039;-73
2022/08/12 04:03:54;;;;;;;8.10;6.88;;;;;;;14.39;97.32;101844.63;1022846;29;20046;-73
2022/08/12 04:04:33;;;;;;;7.35;6.60;;;;;;;14.42;97.92;101849.56;1023590;29;20044;-73
2022/08/12 04:05:10;;;;;;;7.70;7.00;;;;;;;14.13;97.70;101839.44;1026900;28;20542;-73
2022/08/12 04:05:43;;;;;;;11.20;6.80;;;;;;;14.19;97.94;101838.56;1027499;28;20410;-73
2022/08/12 04:06:28;;;;;;;6.88;6.15;;;;;;;14.28;97.79;101837.31;1023681;29;20545;-73
2022/08/12 04:07:08;;;;;;;9.30;6.80;;;;;;;14.35;96.82;101843.44;1023755;29;20039;-73
2022/08/12 04:07:40;;;;;;;12.13;6.32;;;;;;;14.38;98.10;101840.31;1021423;29;20043;-73
2022/08/12 04:08:29;;;;;;;8.23;7.22;;;;;;;14.40;97.68;101840.91;1023563;29;20581;-73
2022/08/12 04:09:04;;;;;;;15.45;6.82;;;;;;;14.45;97.39;101837.59;1023255;29;20050;-73
2022/08/12 04:09:47;;;;;;;9.05;7.60;;;;;;;14.29;96.78;101832.75;1027855;28;20039;-73
2022/08/12 04:10:19;;;;;;;7.05;6.38;;;;;;;14.27;97.64;101832.97;1027719;28;20494;-73
2022/08/12 04:13:32;;;;;;;8.18;7.03;;;;;;;14.35;98.25;101837.25;1015349;29;20119;-73
2022/08/12 04:14:18;;;;;;;12.23;7.72;;;;;;;14.43;98.54;101832.47;1018313;28;20110;-73
2022/08/12 04:14:51;;;;;;;8.05;6.78;;;;;;;14.49;99.23;101834.28;1022931;29;20047;-73
2022/08/12 04:15:27;;;;;;;9.02;8.13;;;;;;;14.53;98.41;101835.50;1019763;29;20526;-73
2022/08/12 04:16:01;;;;;;;10.35;6.55;;;;;;;14.55;97.35;101837.16;1017617;29;20071;-72
2022/08/12 04:16:34;;;;;;;8.23;7.43;;;;;;;14.52;97.50;101833.88;1016444;29;20055;-73
2022/08/12 04:17:07;;;;;;;16.80;7.00;;;;;;;14.53;98.10;101832.81;1017184;29;20055;-73
2022/08/12 04:17:40;;;;;;;9.50;7.55;;;;;;;14.40;98.50;101835.56;1013159;29;20047;-73
2022/08/12 04:18:32;;;;;;;7.47;6.72;;;;;;;14.45;97.50;101838.44;1019083;29;20044;-73
2022/08/12 04:19:05;;;;;;;9.15;6.60;;;;;;;14.43;96.89;101837.81;1023031;29;20031;-73
2022/08/12 04:19:37;;;;;;;6.85;6.15;;;;;;;14.43;97.52;101843.19;1023526;29;20054;-73
2022/08/12 04:20:12;;;;;;;11.80;8.00;;;;;;;14.48;96.49;101835.31;1027146;28;20142;-73
2022/08/12 04:20:46;;;;;;;7.97;7.18;;;;;;;14.45;97.35;101840.28;1028000;28;20062;-73
2022/08/12 04:21:18;;;;;;;9.25;7.50;;;;;;;14.46;97.55;101839.25;1019305;29;20099;-73
2022/08/12 04:21:49;;;;;;;7.82;6.68;;;;;;;14.40;98.35;101840.91;1019180;29;20044;-73
2022/08/12 04:22:33;;;;;;;15.40;7.20;;;;;;;14.35;98.08;101838.06;1016984;29;20088;-73
2022/08/12 04:23:07;;;;;;;9.55;6.53;;;;;;;14.37;98.22;101838.66;1022105;29;20058;-73